sensor_id;sensor_type;location;lat;lon;timestamp;P1;durP1;ratioP1;P2;durP2;ratioP2
19223;SDS011;9746;47.180;9.776;2022-10-16T05:48:28;0.10;;;0.10;;
19223;SDS011;9746;47.180;9.776;2022-10-16T05:50:57;0.20;;;0.20;;
19223;SDS011;9746;47.180;9.776;2022-10-16T05:53:26;0.20;;;0.20;;
19223;SDS011;9746;47.180;9.776;2022-10-16T05:55:55;0.10;;;0.10;;
19223;SDS011;9746;47.180;9.776;2022-10-16T05:58:22;0.20;;;0.20;;
19223;SDS011;9746;47.180;9.776;2022-10-16T06:00:54;0.20;;;0.20;;
19223;SDS011;9746;47.180;9.776;2022-10-16T06:03:22;0.20;;;0.20;;
19223;SDS011;9746;47.180;9.776;2022-10-16T06:05:51;0.20;;;0.20;;
19223;SDS011;9746;47.180;9.776;2022-10-16T06:08:20;0.13;;;0.13;;
19223;SDS011;9746;47.180;9.776;2022-10-16T06:10:48;0.20;;;0.20;;
19223;SDS011;9746;47.180;9.776;2022-10-16T06:13:26;0.20;;;0.20;;
19223;SDS011;9746;47.180;9.776;2022-10-16T06:15:56;0.20;;;0.20;;
19223;SDS011;9746;47.180;9.776;2022-10-16T06:18:27;0.20;;;0.20;;
19223;SDS011;9746;47.180;9.776;2022-10-16T06:20:57;0.20;;;0.20;;
19223;SDS011;9746;47.180;9.776;2022-10-16T06:23:25;0.20;;;0.20;;
19223;SDS011;9746;47.180;9.776;2022-10-16T06:25:54;0.20;;;0.20;;
19223;SDS011;9746;47.180;9.776;2022-10-16T06:28:31;0.17;;;0.17;;
19223;SDS011;9746;47.180;9.776;2022-10-16T06:30:59;0.20;;;0.20;;
19223;SDS011;9746;47.180;9.776;2022-10-16T06:33:26;0.20;;;0.20;;
19223;SDS011;9746;47.180;9.776;2022-10-16T06:35:53;0.20;;;0.20;;
19223;SDS011;9746;47.180;9.776;2022-10-16T06:38:28;0.20;;;0.20;;
19223;SDS011;9746;47.180;9.776;2022-10-16T06:40:55;0.20;;;0.20;;
19223;SDS011;9746;47.180;9.776;2022-10-16T06:43:23;0.20;;;0.20;;
19223;SDS011;9746;47.180;9.776;2022-10-16T06:45:52;0.20;;;0.20;;
19223;SDS011;9746;47.180;9.776;2022-10-16T06:48:20;0.20;;;0.20;;
19223;SDS011;9746;47.180;9.776;2022-10-16T06:50:56;0.20;;;0.20;;
19223;SDS011;9746;47.180;9.776;2022-10-16T06:53:26;0.20;;;0.20;;
19223;SDS011;9746;47.180;9.776;2022-10-16T06:55:55;0.20;;;0.20;;
19223;SDS011;9746;47.180;9.776;2022-10-16T06:58:22;0.10;;;0.10;;
19223;SDS011;9746;47.180;9.776;2022-10-16T07:00:54;0.15;;;0.15;;
19223;SDS011;9746;47.180;9.776;2022-10-16T07:03:23;0.10;;;0.10;;
19223;SDS011;9746;47.180;9.776;2022-10-16T07:05:51;0.20;;;0.20;;
19223;SDS011;9746;47.180;9.776;2022-10-16T07:08:19;0.10;;;0.10;;
19223;SDS011;9746;47.180;9.776;2022-10-16T07:10:47;0.20;;;0.20;;
19223;SDS011;9746;47.180;9.776;2022-10-16T07:13:16;0.20;;;0.20;;
19223;SDS011;9746;47.180;9.776;2022-10-16T07:15:44;0.13;;;0.13;;
19223;SDS011;9746;47.180;9.776;2022-10-16T07:18:13;0.20;;;0.20;;
19223;SDS011;9746;47.180;9.776;2022-10-16T07:20:40;0.20;;;0.20;;
19223;SDS011;9746;47.180;9.776;2022-10-16T07:23:07;0.20;;;0.20;;
19223;SDS011;9746;47.180;9.776;2022-10-16T07:25:35;0.20;;;0.20;;
19223;SDS011;9746;47.180;9.776;2022-10-16T07:28:03;0.10;;;0.10;;
19223;SDS011;9746;47.180;9.776;2022-10-16T07:30:31;0.10;;;0.10;;
19223;SDS011;9746;47.180;9.776;2022-10-16T07:33:02;0.10;;;0.10;;
19223;SDS011;9746;47.180;9.776;2022-10-16T07:35:30;0.10;;;0.10;;
19223;SDS011;9746;47.180;9.776;2022-10-16T07:37:57;0.20;;;0.20;;
19223;SDS011;9746;47.180;9.776;2022-10-16T07:40:25;0.10;;;0.10;;
19223;SDS011;9746;47.180;9.776;2022-10-16T07:42:53;0.20;;;0.20;;
19223;SDS011;9746;47.180;9.776;2022-10-16T07:45:22;0.10;;;0.10;;
19223;SDS011;9746;47.180;9.776;2022-10-16T07:47:49;0.20;;;0.20;;
19223;SDS011;9746;47.180;9.776;2022-10-16T07:50:17;0.13;;;0.13;;
19223;SDS011;9746;47.180;9.776;2022-10-16T07:52:44;0.13;;;0.13;;
19223;SDS011;9746;47.180;9.776;2022-10-16T07:55:12;0.10;;;0.10;;
19223;SDS011;9746;47.180;9.776;2022-10-16T07:57:39;0.10;;;0.10;;
19223;SDS011;9746;47.180;9.776;2022-10-16T08:00:08;0.10;;;0.10;;
19223;SDS011;9746;47.180;9.776;2022-10-16T08:02:40;0.10;;;0.10;;
19223;SDS011;9746;47.180;9.776;2022-10-16T08:05:08;0.10;;;0.10;;
19223;SDS011;9746;47.180;9.776;2022-10-16T08:07:35;0.10;;;0.10;;
19223;SDS011;9746;47.180;9.776;2022-10-16T08:10:03;0.10;;;0.10;;
19223;SDS011;9746;47.180;9.776;2022-10-16T08:12:31;0.10;;;0.10;;
19223;SDS011;9746;47.180;9.776;2022-10-16T08:14:59;0.10;;;0.10;;
19223;SDS011;9746;47.180;9.776;2022-10-16T08:17:26;0.10;;;0.10;;
19223;SDS011;9746;47.180;9.776;2022-10-16T08:19:55;0.10;;;0.10;;
19223;SDS011;9746;47.180;9.776;2022-10-16T08:22:22;0.10;;;0.10;;
19223;SDS011;9746;47.180;9.776;2022-10-16T08:24:50;0.10;;;0.10;;
19223;SDS011;9746;47.180;9.776;2022-10-16T08:27:17;0.10;;;0.10;;
19223;SDS011;9746;47.180;9.776;2022-10-16T08:29:45;0.10;;;0.10;;
19223;SDS011;9746;47.180;9.776;2022-10-16T08:32:15;0.10;;;0.10;;
19223;SDS011;9746;47.180;9.776;2022-10-16T08:34:42;0.10;;;0.10;;
19223;SDS011;9746;47.180;9.776;2022-10-16T08:37:11;0.10;;;0.10;;
19223;SDS011;9746;47.180;9.776;2022-10-16T08:39:39;0.10;;;0.10;;
19223;SDS011;9746;47.180;9.776;2022-10-16T08:42:11;0.10;;;0.10;;
19223;SDS011;9746;47.180;9.776;2022-10-16T08:47:43;0.10;;;0.10;;
19223;SDS011;9746;47.180;9.776;2022-10-16T08:50:18;0.10;;;0.10;;
19223;SDS011;9746;47.180;9.776;2022-10-16T08:52:51;0.00;;;0.00;;
19223;SDS011;9746;47.180;9.776;2022-10-16T08:55:27;0.10;;;0.10;;
19223;SDS011;9746;47.180;9.776;2022-10-16T08:57:59;0.10;;;0.10;;
19223;SDS011;9746;47.180;9.776;2022-10-16T09:00:27;0.10;;;0.10;;
19223;SDS011;9746;47.180;9.776;2022-10-16T09:02:58;0.10;;;0.10;;
19223;SDS011;9746;47.180;9.776;2022-10-16T09:05:48;0.10;;;0.10;;
19223;SDS011;9746;47.180;9.776;2022-10-16T09:08:28;0.10;;;0.10;;
19223;SDS011;9746;47.180;9.776;2022-10-16T09:11:07;0.10;;;0.10;;
19223;SDS011;9746;47.180;9.776;2022-10-16T09:13:43;0.10;;;0.10;;
19223;SDS011;9746;47.180;9.776;2022-10-16T09:16:17;0.10;;;0.10;;
19223;SDS011;9746;47.180;9.776;2022-10-16T09:18:51;0.00;;;0.00;;
19223;SDS011;9746;47.180;9.776;2022-10-16T09:21:26;0.10;;;0.10;;
19223;SDS011;9746;47.180;9.776;2022-10-16T09:23:58;0.10;;;0.10;;
19223;SDS011;9746;47.180;9.776;2022-10-16T09:26:32;0.03;;;0.03;;
19223;SDS011;9746;47.180;9.776;2022-10-16T09:28:59;0.10;;;0.10;;
19223;SDS011;9746;47.180;9.776;2022-10-16T09:31:26;0.10;;;0.10;;
19223;SDS011;9746;47.180;9.776;2022-10-16T09:33:55;0.08;;;0.08;;
19223;SDS011;9746;47.180;9.776;2022-10-16T09:36:26;0.10;;;0.10;;
19223;SDS011;9746;47.180;9.776;2022-10-16T09:39:04;0.00;;;0.00;;
19223;SDS011;9746;47.180;9.776;2022-10-16T09:41:34;0.10;;;0.10;;
19223;SDS011;9746;47.180;9.776;2022-10-16T09:44:03;0.10;;;0.10;;
19223;SDS011;9746;47.180;9.776;2022-10-16T09:46:40;0.00;;;0.00;;
19223;SDS011;9746;47.180;9.776;2022-10-16T09:49:18;0.10;;;0.10;;
19223;SDS011;9746;47.180;9.776;2022-10-16T09:51:48;0.00;;;0.00;;
19223;SDS011;9746;47.180;9.776;2022-10-16T09:54:18;0.00;;;0.00;;
19223;SDS011;9746;47.180;9.776;2022-10-16T09:56:47;0.00;;;0.00;;
19223;SDS011;9746;47.180;9.776;2022-10-16T09:59:17;0.10;;;0.10;;
19223;SDS011;9746;47.180;9.776;2022-10-16T10:01:46;0.05;;;0.05;;
19223;SDS011;9746;47.180;9.776;2022-10-16T10:04:17;0.10;;;0.10;;
19223;SDS011;9746;47.180;9.776;2022-10-16T10:06:45;0.00;;;0.00;;
19223;SDS011;9746;47.180;9.776;2022-10-16T10:19:40;0.00;;;0.00;;
19223;SDS011;9746;47.180;9.776;2022-10-16T10:22:13;0.00;;;0.00;;
19223;SDS011;9746;47.180;9.776;2022-10-16T10:24:44;0.00;;;0.00;;
19223;SDS011;9746;47.180;9.776;2022-10-16T10:27:20;0.00;;;0.00;;
19223;SDS011;9746;47.180;9.776;2022-10-16T10:29:57;0.00;;;0.00;;
19223;SDS011;9746;47.180;9.776;2022-10-16T10:32:31;0.00;;;0.00;;
19223;SDS011;9746;47.180;9.776;2022-10-16T10:35:14;0.00;;;0.00;;
19223;SDS011;9746;47.180;9.776;2022-10-16T10:37:58;0.00;;;0.00;;
19223;SDS011;9746;47.180;9.776;2022-10-16T10:40:45;0.00;;;0.00;;
19223;SDS011;9746;47.180;9.776;2022-10-16T10:43:24;0.00;;;0.00;;
19223;SDS011;9746;47.180;9.776;2022-10-16T10:46:05;0.00;;;0.00;;
19223;SDS011;9746;47.180;9.776;2022-10-16T10:48:43;0.00;;;0.00;;
19223;SDS011;9746;47.180;9.776;2022-10-16T10:51:22;0.00;;;0.00;;
19223;SDS011;9746;47.180;9.776;2022-10-16T10:53:59;0.00;;;0.00;;
19223;SDS011;9746;47.180;9.776;2022-10-16T10:56:42;0.00;;;0.00;;
19223;SDS011;9746;47.180;9.776;2022-10-16T10:59:24;0.00;;;0.00;;
19223;SDS011;9746;47.180;9.776;2022-10-16T11:02:12;0.00;;;0.00;;
19223;SDS011;9746;47.180;9.776;2022-10-16T11:04:58;0.00;;;0.00;;
19223;SDS011;9746;47.180;9.776;2022-10-16T11:07:45;0.00;;;0.00;;
19223;SDS011;9746;47.180;9.776;2022-10-16T11:10:18;0.00;;;0.00;;
19223;SDS011;9746;47.180;9.776;2022-10-16T11:12:49;0.00;;;0.00;;
19223;SDS011;9746;47.180;9.776;2022-10-16T11:15:24;0.00;;;0.00;;
19223;SDS011;9746;47.180;9.776;2022-10-16T11:17:55;0.00;;;0.00;;
19223;SDS011;9746;47.180;9.776;2022-10-16T11:20:31;0.00;;;0.00;;
19223;SDS011;9746;47.180;9.776;2022-10-16T11:23:02;0.00;;;0.00;;
19223;SDS011;9746;47.180;9.776;2022-10-16T11:25:38;0.00;;;0.00;;
19223;SDS011;9746;47.180;9.776;2022-10-16T11:28:07;0.00;;;0.00;;
19223;SDS011;9746;47.180;9.776;2022-10-16T11:30:43;0.00;;;0.00;;
19223;SDS011;9746;47.180;9.776;2022-10-16T11:33:25;0.00;;;0.00;;
19223;SDS011;9746;47.180;9.776;2022-10-16T11:36:00;0.00;;;0.00;;
19223;SDS011;9746;47.180;9.776;2022-10-16T11:38:37;0.00;;;0.00;;
19223;SDS011;9746;47.180;9.776;2022-10-16T11:41:12;0.00;;;0.00;;
19223;SDS011;9746;47.180;9.776;2022-10-16T11:43:46;0.00;;;0.00;;
19223;SDS011;9746;47.180;9.776;2022-10-16T11:46:20;0.00;;;0.00;;
19223;SDS011;9746;47.180;9.776;2022-10-16T11:48:52;0.00;;;0.00;;
19223;SDS011;9746;47.180;9.776;2022-10-16T11:51:29;0.00;;;0.00;;
19223;SDS011;9746;47.180;9.776;2022-10-16T11:54:07;0.00;;;0.00;;
19223;SDS011;9746;47.180;9.776;2022-10-16T11:56:52;0.00;;;0.00;;
19223;SDS011;9746;47.180;9.776;2022-10-16T11:59:26;0.00;;;0.00;;
19223;SDS011;9746;47.180;9.776;2022-10-16T12:02:15;0.00;;;0.00;;
19223;SDS011;9746;47.180;9.776;2022-10-16T12:04:59;0.00;;;0.00;;
19223;SDS011;9746;47.180;9.776;2022-10-16T12:07:35;0.00;;;0.00;;
19223;SDS011;9746;47.180;9.776;2022-10-16T12:10:19;0.00;;;0.00;;
19223;SDS011;9746;47.180;9.776;2022-10-16T12:12:48;0.00;;;0.00;;
19223;SDS011;9746;47.180;9.776;2022-10-16T12:15:20;0.00;;;0.00;;
19223;SDS011;9746;47.180;9.776;2022-10-16T12:17:49;0.00;;;0.00;;
19223;SDS011;9746;47.180;9.776;2022-10-16T12:20:20;0.00;;;0.00;;
19223;SDS011;9746;47.180;9.776;2022-10-16T12:22:52;0.00;;;0.00;;
19223;SDS011;9746;47.180;9.776;2022-10-16T12:25:24;0.00;;;0.00;;
19223;SDS011;9746;47.180;9.776;2022-10-16T12:27:55;0.00;;;0.00;;
19223;SDS011;9746;47.180;9.776;2022-10-16T12:30:26;0.00;;;0.00;;
19223;SDS011;9746;47.180;9.776;2022-10-16T12:32:56;0.00;;;0.00;;
19223;SDS011;9746;47.180;9.776;2022-10-16T12:35:25;0.00;;;0.00;;
19223;SDS011;9746;47.180;9.776;2022-10-16T12:38:03;0.00;;;0.00;;
19223;SDS011;9746;47.180;9.776;2022-10-16T12:40:35;0.00;;;0.00;;
19223;SDS011;9746;47.180;9.776;2022-10-16T12:43:11;0.00;;;0.00;;
19223;SDS011;9746;47.180;9.776;2022-10-16T12:45:59;0.00;;;0.00;;
19223;SDS011;9746;47.180;9.776;2022-10-16T12:48:27;0.00;;;0.00;;
19223;SDS011;9746;47.180;9.776;2022-10-16T12:50:57;0.00;;;0.00;;
19223;SDS011;9746;47.180;9.776;2022-10-16T12:53:35;0.00;;;0.00;;
19223;SDS011;9746;47.180;9.776;2022-10-16T12:56:08;0.00;;;0.00;;
19223;SDS011;9746;47.180;9.776;2022-10-16T13:01:39;0.00;;;0.00;;
19223;SDS011;9746;47.180;9.776;2022-10-16T13:04:30;0.00;;;0.00;;
19223;SDS011;9746;47.180;9.776;2022-10-16T13:07:14;0.00;;;0.00;;
19223;SDS011;9746;47.180;9.776;2022-10-16T13:10:00;0.00;;;0.00;;
19223;SDS011;9746;47.180;9.776;2022-10-16T13:12:49;0.00;;;0.00;;
19223;SDS011;9746;47.180;9.776;2022-10-16T13:15:29;0.00;;;0.00;;
19223;SDS011;9746;47.180;9.776;2022-10-16T13:18:17;0.00;;;0.00;;
19223;SDS011;9746;47.180;9.776;2022-10-16T13:20:56;0.00;;;0.00;;
19223;SDS011;9746;47.180;9.776;2022-10-16T13:23:36;0.00;;;0.00;;
19223;SDS011;9746;47.180;9.776;2022-10-16T13:26:13;0.00;;;0.00;;
19223;SDS011;9746;47.180;9.776;2022-10-16T13:28:49;0.00;;;0.00;;
19223;SDS011;9746;47.180;9.776;2022-10-16T13:31:18;0.00;;;0.00;;
19223;SDS011;9746;47.180;9.776;2022-10-16T13:33:49;0.00;;;0.00;;
19223;SDS011;9746;47.180;9.776;2022-10-16T13:36:21;0.00;;;0.00;;
19223;SDS011;9746;47.180;9.776;2022-10-16T13:38:58;0.00;;;0.00;;
19223;SDS011;9746;47.180;9.776;2022-10-16T13:41:33;0.00;;;0.00;;
19223;SDS011;9746;47.180;9.776;2022-10-16T13:44:02;0.00;;;0.00;;
19223;SDS011;9746;47.180;9.776;2022-10-16T13:46:31;0.00;;;0.00;;
19223;SDS011;9746;47.180;9.776;2022-10-16T13:49:00;0.00;;;0.00;;
19223;SDS011;9746;47.180;9.776;2022-10-16T13:51:29;0.00;;;0.00;;
19223;SDS011;9746;47.180;9.776;2022-10-16T13:53:57;0.00;;;0.00;;
19223;SDS011;9746;47.180;9.776;2022-10-16T13:56:26;0.00;;;0.00;;
19223;SDS011;9746;47.180;9.776;2022-10-16T13:58:58;0.00;;;0.00;;
19223;SDS011;9746;47.180;9.776;2022-10-16T14:01:28;0.00;;;0.00;;
19223;SDS011;9746;47.180;9.776;2022-10-16T14:04:01;0.00;;;0.00;;
19223;SDS011;9746;47.180;9.776;2022-10-16T14:06:30;0.00;;;0.00;;
19223;SDS011;9746;47.180;9.776;2022-10-16T14:09:00;0.00;;;0.00;;
19223;SDS011;9746;47.180;9.776;2022-10-16T14:11:32;0.00;;;0.00;;
19223;SDS011;9746;47.180;9.776;2022-10-16T14:14:04;0.00;;;0.00;;
19223;SDS011;9746;47.180;9.776;2022-10-16T14:16:34;0.00;;;0.00;;
19223;SDS011;9746;47.180;9.776;2022-10-16T14:19:02;0.00;;;0.00;;
19223;SDS011;9746;47.180;9.776;2022-10-16T14:21:32;0.00;;;0.00;;
19223;SDS011;9746;47.180;9.776;2022-10-16T14:24:10;0.00;;;0.00;;
19223;SDS011;9746;47.180;9.776;2022-10-16T14:26:41;0.00;;;0.00;;
19223;SDS011;9746;47.180;9.776;2022-10-16T14:29:13;0.00;;;0.00;;
19223;SDS011;9746;47.180;9.776;2022-10-16T14:31:53;0.00;;;0.00;;
19223;SDS011;9746;47.180;9.776;2022-10-16T14:34:23;0.00;;;0.00;;
19223;SDS011;9746;47.180;9.776;2022-10-16T14:36:56;0.00;;;0.00;;
19223;SDS011;9746;47.180;9.776;2022-10-16T14:39:26;0.00;;;0.00;;
19223;SDS011;9746;47.180;9.776;2022-10-16T14:41:55;0.00;;;0.00;;
19223;SDS011;9746;47.180;9.776;2022-10-16T14:44:26;0.00;;;0.00;;
19223;SDS011;9746;47.180;9.776;2022-10-16T14:47:05;0.00;;;0.00;;
19223;SDS011;9746;47.180;9.776;2022-10-16T14:49:35;0.00;;;0.00;;
19223;SDS011;9746;47.180;9.776;2022-10-16T14:52:04;0.00;;;0.00;;
19223;SDS011;9746;47.180;9.776;2022-10-16T14:54:36;0.00;;;0.00;;
19223;SDS011;9746;47.180;9.776;2022-10-16T14:57:05;0.00;;;0.00;;
19223;SDS011;9746;47.180;9.776;2022-10-16T14:59:42;0.00;;;0.00;;
19223;SDS011;9746;47.180;9.776;2022-10-16T15:02:15;0.00;;;0.00;;
19223;SDS011;9746;47.180;9.776;2022-10-16T15:04:47;0.00;;;0.00;;
19223;SDS011;9746;47.180;9.776;2022-10-16T15:07:15;0.10;;;0.10;;
19223;SDS011;9746;47.180;9.776;2022-10-16T15:09:43;0.00;;;0.00;;
19223;SDS011;9746;47.180;9.776;2022-10-16T15:12:11;0.10;;;0.10;;
19223;SDS011;9746;47.180;9.776;2022-10-16T15:14:38;0.00;;;0.00;;
19223;SDS011;9746;47.180;9.776;2022-10-16T15:17:07;0.10;;;0.10;;
19223;SDS011;9746;47.180;9.776;2022-10-16T15:19:37;0.10;;;0.10;;
19223;SDS011;9746;47.180;9.776;2022-10-16T15:22:04;0.10;;;0.10;;
19223;SDS011;9746;47.180;9.776;2022-10-16T15:24:32;0.10;;;0.10;;
19223;SDS011;9746;47.180;9.776;2022-10-16T15:26:59;0.10;;;0.10;;
19223;SDS011;9746;47.180;9.776;2022-10-16T15:29:26;0.10;;;0.10;;
19223;SDS011;9746;47.180;9.776;2022-10-16T15:31:54;0.10;;;0.10;;
19223;SDS011;9746;47.180;9.776;2022-10-16T15:34:21;0.10;;;0.10;;
19223;SDS011;9746;47.180;9.776;2022-10-16T15:36:50;0.10;;;0.10;;
19223;SDS011;9746;47.180;9.776;2022-10-16T15:39:18;0.10;;;0.10;;
19223;SDS011;9746;47.180;9.776;2022-10-16T15:41:46;0.10;;;0.10;;
19223;SDS011;9746;47.180;9.776;2022-10-16T15:44:16;0.10;;;0.10;;
19223;SDS011;9746;47.180;9.776;2022-10-16T15:46:43;0.10;;;0.10;;
19223;SDS011;9746;47.180;9.776;2022-10-16T15:49:11;0.10;;;0.10;;
19223;SDS011;9746;47.180;9.776;2022-10-16T15:51:39;0.10;;;0.10;;
19223;SDS011;9746;47.180;9.776;2022-10-16T15:54:09;0.10;;;0.10;;
19223;SDS011;9746;47.180;9.776;2022-10-16T15:56:37;0.10;;;0.10;;
19223;SDS011;9746;47.180;9.776;2022-10-16T15:59:04;0.10;;;0.10;;
19223;SDS011;9746;47.180;9.776;2022-10-16T16:01:32;0.10;;;0.10;;
19223;SDS011;9746;47.180;9.776;2022-10-16T16:04:01;0.10;;;0.10;;
19223;SDS011;9746;47.180;9.776;2022-10-16T16:06:29;0.10;;;0.10;;
19223;SDS011;9746;47.180;9.776;2022-10-16T16:08:57;0.10;;;0.10;;
19223;SDS011;9746;47.180;9.776;2022-10-16T16:11:27;0.10;;;0.10;;
19223;SDS011;9746;47.180;9.776;2022-10-16T16:13:57;0.10;;;0.10;;
19223;SDS011;9746;47.180;9.776;2022-10-16T16:16:24;0.20;;;0.20;;
19223;SDS011;9746;47.180;9.776;2022-10-16T16:18:52;0.10;;;0.10;;
19223;SDS011;9746;47.180;9.776;2022-10-16T16:21:20;0.10;;;0.10;;
19223;SDS011;9746;47.180;9.776;2022-10-16T16:23:48;0.10;;;0.10;;
19223;SDS011;9746;47.180;9.776;2022-10-16T16:26:22;0.10;;;0.10;;
19223;SDS011;9746;47.180;9.776;2022-10-16T16:28:53;0.10;;;0.10;;
19223;SDS011;9746;47.180;9.776;2022-10-16T16:31:23;0.10;;;0.10;;
19223;SDS011;9746;47.180;9.776;2022-10-16T16:33:52;0.10;;;0.10;;
19223;SDS011;9746;47.180;9.776;2022-10-16T16:36:19;0.10;;;0.10;;
19223;SDS011;9746;47.180;9.776;2022-10-16T16:38:47;0.10;;;0.10;;
19223;SDS011;9746;47.180;9.776;2022-10-16T16:41:16;0.10;;;0.10;;
19223;SDS011;9746;47.180;9.776;2022-10-16T16:43:49;0.10;;;0.10;;
19223;SDS011;9746;47.180;9.776;2022-10-16T16:46:18;0.10;;;0.10;;
19223;SDS011;9746;47.180;9.776;2022-10-16T16:48:47;0.10;;;0.10;;
19223;SDS011;9746;47.180;9.776;2022-10-16T16:51:18;0.20;;;0.20;;
19223;SDS011;9746;47.180;9.776;2022-10-16T16:53:46;0.10;;;0.10;;
19223;SDS011;9746;47.180;9.776;2022-10-16T16:56:16;0.10;;;0.10;;
19223;SDS011;9746;47.180;9.776;2022-10-16T16:58:44;0.10;;;0.10;;
19223;SDS011;9746;47.180;9.776;2022-10-16T17:01:13;0.10;;;0.10;;
19223;SDS011;9746;47.180;9.776;2022-10-16T17:03:47;0.10;;;0.10;;
19223;SDS011;9746;47.180;9.776;2022-10-16T17:06:17;0.10;;;0.10;;
19223;SDS011;9746;47.180;9.776;2022-10-16T17:08:45;0.10;;;0.10;;
19223;SDS011;9746;47.180;9.776;2022-10-16T17:11:14;0.10;;;0.10;;
19223;SDS011;9746;47.180;9.776;2022-10-16T17:13:42;0.10;;;0.10;;
19223;SDS011;9746;47.180;9.776;2022-10-16T17:16:09;0.10;;;0.10;;
19223;SDS011;9746;47.180;9.776;2022-10-16T17:18:37;0.10;;;0.10;;
19223;SDS011;9746;47.180;9.776;2022-10-16T17:21:07;0.10;;;0.10;;
19223;SDS011;9746;47.180;9.776;2022-10-16T17:23:35;0.10;;;0.10;;
19223;SDS011;9746;47.180;9.776;2022-10-16T17:26:04;0.10;;;0.10;;
19223;SDS011;9746;47.180;9.776;2022-10-16T17:28:32;0.20;;;0.20;;
19223;SDS011;9746;47.180;9.776;2022-10-16T17:31:06;0.10;;;0.10;;
19223;SDS011;9746;47.180;9.776;2022-10-16T17:33:35;0.10;;;0.10;;
19223;SDS011;9746;47.180;9.776;2022-10-16T17:36:03;0.10;;;0.10;;
19223;SDS011;9746;47.180;9.776;2022-10-16T17:38:32;0.10;;;0.10;;
19223;SDS011;9746;47.180;9.776;2022-10-16T17:41:08;0.10;;;0.10;;
19223;SDS011;9746;47.180;9.776;2022-10-16T17:43:37;0.10;;;0.10;;
19223;SDS011;9746;47.180;9.776;2022-10-16T17:46:08;0.10;;;0.10;;
19223;SDS011;9746;47.180;9.776;2022-10-16T17:48:37;0.10;;;0.10;;
19223;SDS011;9746;47.180;9.776;2022-10-16T17:51:05;0.10;;;0.10;;
19223;SDS011;9746;47.180;9.776;2022-10-16T17:53:36;0.10;;;0.10;;
19223;SDS011;9746;47.180;9.776;2022-10-16T17:56:04;0.10;;;0.10;;
19223;SDS011;9746;47.180;9.776;2022-10-16T17:58:32;0.10;;;0.10;;
19223;SDS011;9746;47.180;9.776;2022-10-16T18:01:00;0.10;;;0.10;;
19223;SDS011;9746;47.180;9.776;2022-10-16T18:03:28;0.10;;;0.10;;
19223;SDS011;9746;47.180;9.776;2022-10-16T18:05:55;0.10;;;0.10;;
19223;SDS011;9746;47.180;9.776;2022-10-16T18:08:23;0.10;;;0.10;;
19223;SDS011;9746;47.180;9.776;2022-10-16T18:10:51;0.10;;;0.10;;
19223;SDS011;9746;47.180;9.776;2022-10-16T18:13:19;0.10;;;0.10;;
19223;SDS011;9746;47.180;9.776;2022-10-16T18:15:46;0.10;;;0.10;;
19223;SDS011;9746;47.180;9.776;2022-10-16T18:18:13;0.10;;;0.10;;
19223;SDS011;9746;47.180;9.776;2022-10-16T18:20:41;0.10;;;0.10;;
19223;SDS011;9746;47.180;9.776;2022-10-16T18:23:08;0.10;;;0.10;;
19223;SDS011;9746;47.180;9.776;2022-10-16T18:25:35;0.10;;;0.10;;
19223;SDS011;9746;47.180;9.776;2022-10-16T18:28:08;0.10;;;0.10;;
19223;SDS011;9746;47.180;9.776;2022-10-16T18:30:38;0.10;;;0.10;;
19223;SDS011;9746;47.180;9.776;2022-10-16T18:33:07;0.17;;;0.17;;
19223;SDS011;9746;47.180;9.776;2022-10-16T18:35:36;0.10;;;0.10;;
19223;SDS011;9746;47.180;9.776;2022-10-16T18:38:05;0.10;;;0.10;;
19223;SDS011;9746;47.180;9.776;2022-10-16T18:40:34;0.10;;;0.10;;
19223;SDS011;9746;47.180;9.776;2022-10-16T18:43:02;0.10;;;0.10;;
19223;SDS011;9746;47.180;9.776;2022-10-16T18:45:31;0.10;;;0.10;;
19223;SDS011;9746;47.180;9.776;2022-10-16T18:47:58;0.10;;;0.10;;
19223;SDS011;9746;47.180;9.776;2022-10-16T18:50:25;0.10;;;0.10;;
19223;SDS011;9746;47.180;9.776;2022-10-16T18:52:53;0.10;;;0.10;;
19223;SDS011;9746;47.180;9.776;2022-10-16T18:55:22;0.10;;;0.10;;
19223;SDS011;9746;47.180;9.776;2022-10-16T18:57:50;0.20;;;0.20;;
19223;SDS011;9746;47.180;9.776;2022-10-16T19:00:21;0.20;;;0.20;;
19223;SDS011;9746;47.180;9.776;2022-10-16T19:02:53;0.20;;;0.20;;
19223;SDS011;9746;47.180;9.776;2022-10-16T19:05:23;0.20;;;0.20;;
19223;SDS011;9746;47.180;9.776;2022-10-16T19:07:54;0.20;;;0.20;;
19223;SDS011;9746;47.180;9.776;2022-10-16T19:10:31;0.10;;;0.10;;
19223;SDS011;9746;47.180;9.776;2022-10-16T19:13:02;0.20;;;0.20;;
19223;SDS011;9746;47.180;9.776;2022-10-16T19:15:29;0.20;;;0.20;;
19223;SDS011;9746;47.180;9.776;2022-10-16T19:17:58;0.20;;;0.20;;
19223;SDS011;9746;47.180;9.776;2022-10-16T19:20:25;0.10;;;0.10;;
19223;SDS011;9746;47.180;9.776;2022-10-16T19:22:53;0.15;;;0.15;;
19223;SDS011;9746;47.180;9.776;2022-10-16T19:25:23;0.10;;;0.10;;
19223;SDS011;9746;47.180;9.776;2022-10-16T19:27:52;0.20;;;0.20;;
19223;SDS011;9746;47.180;9.776;2022-10-16T19:30:21;0.20;;;0.20;;
19223;SDS011;9746;47.180;9.776;2022-10-16T19:32:52;0.17;;;0.17;;
19223;SDS011;9746;47.180;9.776;2022-10-16T19:35:23;0.17;;;0.17;;
19223;SDS011;9746;47.180;9.776;2022-10-16T19:37:51;0.17;;;0.17;;
19223;SDS011;9746;47.180;9.776;2022-10-16T19:40:18;0.20;;;0.20;;
19223;SDS011;9746;47.180;9.776;2022-10-16T19:42:46;0.10;;;0.10;;
19223;SDS011;9746;47.180;9.776;2022-10-16T19:45:13;0.10;;;0.10;;
19223;SDS011;9746;47.180;9.776;2022-10-16T19:47:41;0.20;;;0.20;;
19223;SDS011;9746;47.180;9.776;2022-10-16T19:50:10;0.20;;;0.20;;
